sensor_id;sensor_type;location;lat;lon;timestamp;P1;durP1;ratioP1;P2;durP2;ratioP2
46899;SDS011;32647;49.382;7.078;2022-09-09T00:05:04;8.95;;;3.00;;
46899;SDS011;32647;49.382;7.078;2022-09-09T00:08:18;5.70;;;2.28;;
46899;SDS011;32647;49.382;7.078;2022-09-09T00:11:07;8.00;;;2.90;;
46899;SDS011;32647;49.382;7.078;2022-09-09T00:13:58;4.85;;;2.40;;
46899;SDS011;32647;49.382;7.078;2022-09-09T00:16:50;4.95;;;2.40;;
46899;SDS011;32647;49.382;7.078;2022-09-09T00:22:44;6.47;;;2.42;;
46899;SDS011;32647;49.382;7.078;2022-09-09T00:25:39;7.72;;;3.20;;
46899;SDS011;32647;49.382;7.078;2022-09-09T00:31:36;4.70;;;2.65;;
46899;SDS011;32647;49.382;7.078;2022-09-09T00:34:22;5.72;;;2.50;;
46899;SDS011;32647;49.382;7.078;2022-09-09T00:37:10;7.00;;;2.70;;
46899;SDS011;32647;49.382;7.078;2022-09-09T00:39:57;6.65;;;2.70;;
46899;SDS011;32647;49.382;7.078;2022-09-09T00:42:47;7.45;;;2.85;;
46899;SDS011;32647;49.382;7.078;2022-09-09T00:48:37;4.32;;;2.33;;
46899;SDS011;32647;49.382;7.078;2022-09-09T00:57:53;4.20;;;2.15;;
46899;SDS011;32647;49.382;7.078;2022-09-09T01:03:55;5.10;;;2.25;;
46899;SDS011;32647;49.382;7.078;2022-09-09T01:06:45;8.65;;;2.60;;
46899;SDS011;32647;49.382;7.078;2022-09-09T01:12:42;3.60;;;2.30;;
46899;SDS011;32647;49.382;7.078;2022-09-09T01:15:29;7.50;;;2.50;;
46899;SDS011;32647;49.382;7.078;2022-09-09T01:18:17;7.07;;;2.75;;
46899;SDS011;32647;49.382;7.078;2022-09-09T01:24:27;5.47;;;2.50;;
46899;SDS011;32647;49.382;7.078;2022-09-09T01:27:26;3.35;;;2.50;;
46899;SDS011;32647;49.382;7.078;2022-09-09T01:30:12;7.35;;;2.95;;
46899;SDS011;32647;49.382;7.078;2022-09-09T01:33:01;7.80;;;2.70;;
46899;SDS011;32647;49.382;7.078;2022-09-09T01:39:03;5.20;;;2.70;;
46899;SDS011;32647;49.382;7.078;2022-09-09T01:41:49;5.40;;;2.28;;
46899;SDS011;32647;49.382;7.078;2022-09-09T01:44:35;7.13;;;2.50;;
46899;SDS011;32647;49.382;7.078;2022-09-09T01:47:23;8.05;;;2.30;;
46899;SDS011;32647;49.382;7.078;2022-09-09T01:50:10;5.38;;;1.92;;
46899;SDS011;32647;49.382;7.078;2022-09-09T01:52:59;4.60;;;2.17;;
46899;SDS011;32647;49.382;7.078;2022-09-09T01:59:03;2.58;;;1.55;;
46899;SDS011;32647;49.382;7.078;2022-09-09T02:02:18;7.80;;;2.35;;
46899;SDS011;32647;49.382;7.078;2022-09-09T02:08:15;5.35;;;2.33;;
46899;SDS011;32647;49.382;7.078;2022-09-09T02:11:17;5.35;;;2.17;;
46899;SDS011;32647;49.382;7.078;2022-09-09T02:14:05;5.22;;;2.15;;
46899;SDS011;32647;49.382;7.078;2022-09-09T02:16:58;4.72;;;2.40;;
46899;SDS011;32647;49.382;7.078;2022-09-09T02:19:53;7.60;;;1.90;;
46899;SDS011;32647;49.382;7.078;2022-09-09T02:22:45;7.25;;;2.72;;
46899;SDS011;32647;49.382;7.078;2022-09-09T02:25:35;7.13;;;2.17;;
46899;SDS011;32647;49.382;7.078;2022-09-09T02:28:22;7.05;;;2.72;;
46899;SDS011;32647;49.382;7.078;2022-09-09T02:31:11;5.10;;;2.00;;
46899;SDS011;32647;49.382;7.078;2022-09-09T02:34:00;6.40;;;2.72;;
46899;SDS011;32647;49.382;7.078;2022-09-09T02:36:48;4.47;;;2.17;;
46899;SDS011;32647;49.382;7.078;2022-09-09T02:39:38;7.53;;;2.28;;
46899;SDS011;32647;49.382;7.078;2022-09-09T02:42:24;9.77;;;2.53;;
46899;SDS011;32647;49.382;7.078;2022-09-09T02:45:11;4.00;;;2.00;;
46899;SDS011;32647;49.382;7.078;2022-09-09T02:56:33;4.43;;;2.30;;
46899;SDS011;32647;49.382;7.078;2022-09-09T02:59:25;6.70;;;2.08;;
46899;SDS011;32647;49.382;7.078;2022-09-09T03:02:12;6.68;;;2.60;;
46899;SDS011;32647;49.382;7.078;2022-09-09T03:04:58;6.88;;;2.58;;
46899;SDS011;32647;49.382;7.078;2022-09-09T03:07:44;7.15;;;2.45;;
46899;SDS011;32647;49.382;7.078;2022-09-09T03:10:30;6.93;;;2.80;;
46899;SDS011;32647;49.382;7.078;2022-09-09T03:13:16;5.50;;;2.08;;
46899;SDS011;32647;49.382;7.078;2022-09-09T03:16:04;13.63;;;2.90;;
46899;SDS011;32647;49.382;7.078;2022-09-09T03:18:50;5.80;;;1.92;;
46899;SDS011;32647;49.382;7.078;2022-09-09T03:21:37;11.85;;;2.53;;
46899;SDS011;32647;49.382;7.078;2022-09-09T03:24:24;4.70;;;1.88;;
46899;SDS011;32647;49.382;7.078;2022-09-09T03:27:10;6.82;;;2.33;;
46899;SDS011;32647;49.382;7.078;2022-09-09T03:29:56;8.23;;;2.60;;
46899;SDS011;32647;49.382;7.078;2022-09-09T03:32:42;5.22;;;2.10;;
46899;SDS011;32647;49.382;7.078;2022-09-09T03:35:29;3.60;;;1.90;;
46899;SDS011;32647;49.382;7.078;2022-09-09T03:38:15;6.68;;;2.15;;
46899;SDS011;32647;49.382;7.078;2022-09-09T03:41:08;4.95;;;2.00;;
46899;SDS011;32647;49.382;7.078;2022-09-09T03:43:54;9.80;;;2.58;;
46899;SDS011;32647;49.382;7.078;2022-09-09T03:46:40;6.13;;;2.35;;
46899;SDS011;32647;49.382;7.078;2022-09-09T03:49:27;9.15;;;2.00;;
46899;SDS011;32647;49.382;7.078;2022-09-09T03:52:15;6.07;;;2.45;;
46899;SDS011;32647;49.382;7.078;2022-09-09T03:55:01;7.75;;;2.15;;
46899;SDS011;32647;49.382;7.078;2022-09-09T03:57:48;5.90;;;2.30;;
46899;SDS011;32647;49.382;7.078;2022-09-09T04:00:34;6.18;;;2.40;;
46899;SDS011;32647;49.382;7.078;2022-09-09T04:03:20;9.18;;;2.15;;
46899;SDS011;32647;49.382;7.078;2022-09-09T04:06:08;5.03;;;1.92;;
46899;SDS011;32647;49.382;7.078;2022-09-09T04:08:54;5.00;;;2.13;;
46899;SDS011;32647;49.382;7.078;2022-09-09T04:11:40;8.32;;;1.98;;
46899;SDS011;32647;49.382;7.078;2022-09-09T04:14:26;6.75;;;2.60;;
46899;SDS011;32647;49.382;7.078;2022-09-09T04:17:14;6.68;;;2.63;;
46899;SDS011;32647;49.382;7.078;2022-09-09T04:20:00;7.82;;;1.98;;
46899;SDS011;32647;49.382;7.078;2022-09-09T04:22:46;4.07;;;2.10;;
46899;SDS011;32647;49.382;7.078;2022-09-09T04:25:32;10.50;;;2.50;;
46899;SDS011;32647;49.382;7.078;2022-09-09T04:28:19;4.13;;;2.33;;
46899;SDS011;32647;49.382;7.078;2022-09-09T04:31:08;5.22;;;2.35;;
46899;SDS011;32647;49.382;7.078;2022-09-09T04:33:59;4.88;;;1.90;;
46899;SDS011;32647;49.382;7.078;2022-09-09T04:36:50;5.95;;;2.10;;
46899;SDS011;32647;49.382;7.078;2022-09-09T04:39:37;10.80;;;2.65;;
46899;SDS011;32647;49.382;7.078;2022-09-09T04:42:23;6.30;;;2.38;;
46899;SDS011;32647;49.382;7.078;2022-09-09T04:45:09;5.60;;;1.85;;
46899;SDS011;32647;49.382;7.078;2022-09-09T04:47:56;7.70;;;2.08;;
46899;SDS011;32647;49.382;7.078;2022-09-09T04:50:42;5.03;;;1.92;;
46899;SDS011;32647;49.382;7.078;2022-09-09T04:53:28;7.47;;;2.00;;
46899;SDS011;32647;49.382;7.078;2022-09-09T04:56:15;6.43;;;2.00;;
46899;SDS011;32647;49.382;7.078;2022-09-09T04:59:02;4.53;;;2.40;;
46899;SDS011;32647;49.382;7.078;2022-09-09T05:01:48;5.28;;;2.10;;
46899;SDS011;32647;49.382;7.078;2022-09-09T05:04:35;7.55;;;2.55;;
46899;SDS011;32647;49.382;7.078;2022-09-09T05:07:21;6.72;;;2.30;;
46899;SDS011;32647;49.382;7.078;2022-09-09T05:10:07;6.28;;;2.65;;
46899;SDS011;32647;49.382;7.078;2022-09-09T05:12:53;5.38;;;2.00;;
46899;SDS011;32647;49.382;7.078;2022-09-09T05:15:39;5.93;;;2.30;;
46899;SDS011;32647;49.382;7.078;2022-09-09T05:18:25;5.57;;;2.38;;
46899;SDS011;32647;49.382;7.078;2022-09-09T05:23:47;4.43;;;2.17;;
46899;SDS011;32647;49.382;7.078;2022-09-09T05:26:33;5.25;;;1.90;;
46899;SDS011;32647;49.382;7.078;2022-09-09T05:29:19;6.57;;;2.50;;
46899;SDS011;32647;49.382;7.078;2022-09-09T05:32:05;6.90;;;2.35;;
46899;SDS011;32647;49.382;7.078;2022-09-09T05:34:51;8.13;;;2.47;;
46899;SDS011;32647;49.382;7.078;2022-09-09T05:37:37;6.60;;;2.58;;
46899;SDS011;32647;49.382;7.078;2022-09-09T05:40:24;5.05;;;2.50;;
46899;SDS011;32647;49.382;7.078;2022-09-09T05:43:10;4.38;;;2.40;;
46899;SDS011;32647;49.382;7.078;2022-09-09T05:46:03;6.28;;;2.30;;
46899;SDS011;32647;49.382;7.078;2022-09-09T05:48:57;6.03;;;2.20;;
46899;SDS011;32647;49.382;7.078;2022-09-09T05:51:43;9.90;;;2.90;;
46899;SDS011;32647;49.382;7.078;2022-09-09T05:54:29;7.53;;;2.60;;
46899;SDS011;32647;49.382;7.078;2022-09-09T05:57:15;9.88;;;2.58;;
46899;SDS011;32647;49.382;7.078;2022-09-09T06:00:02;7.75;;;2.55;;
46899;SDS011;32647;49.382;7.078;2022-09-09T06:02:52;10.57;;;5.78;;
46899;SDS011;32647;49.382;7.078;2022-09-09T06:05:38;7.18;;;5.10;;
46899;SDS011;32647;49.382;7.078;2022-09-09T06:08:24;7.88;;;2.67;;
46899;SDS011;32647;49.382;7.078;2022-09-09T06:11:11;9.23;;;2.47;;
46899;SDS011;32647;49.382;7.078;2022-09-09T06:13:59;7.88;;;2.30;;
46899;SDS011;32647;49.382;7.078;2022-09-09T06:16:45;6.03;;;2.03;;
46899;SDS011;32647;49.382;7.078;2022-09-09T06:19:31;5.43;;;2.45;;
46899;SDS011;32647;49.382;7.078;2022-09-09T06:22:17;7.03;;;2.70;;
46899;SDS011;32647;49.382;7.078;2022-09-09T06:25:03;5.30;;;2.55;;
46899;SDS011;32647;49.382;7.078;2022-09-09T06:27:49;9.32;;;2.65;;
46899;SDS011;32647;49.382;7.078;2022-09-09T06:30:36;8.50;;;2.95;;
46899;SDS011;32647;49.382;7.078;2022-09-09T06:33:22;6.90;;;2.60;;
46899;SDS011;32647;49.382;7.078;2022-09-09T06:36:12;7.63;;;2.33;;
46899;SDS011;32647;49.382;7.078;2022-09-09T06:39:00;10.48;;;3.35;;
46899;SDS011;32647;49.382;7.078;2022-09-09T06:41:46;10.88;;;3.30;;
46899;SDS011;32647;49.382;7.078;2022-09-09T06:44:33;10.63;;;3.00;;
46899;SDS011;32647;49.382;7.078;2022-09-09T06:47:19;11.30;;;3.05;;
46899;SDS011;32647;49.382;7.078;2022-09-09T06:50:05;10.45;;;2.47;;
46899;SDS011;32647;49.382;7.078;2022-09-09T06:52:52;10.63;;;2.85;;
46899;SDS011;32647;49.382;7.078;2022-09-09T06:55:38;8.27;;;2.65;;
46899;SDS011;32647;49.382;7.078;2022-09-09T06:58:25;8.98;;;3.90;;
46899;SDS011;32647;49.382;7.078;2022-09-09T07:01:12;7.63;;;2.75;;
46899;SDS011;32647;49.382;7.078;2022-09-09T07:04:00;8.68;;;3.00;;
46899;SDS011;32647;49.382;7.078;2022-09-09T07:06:47;7.18;;;2.55;;
46899;SDS011;32647;49.382;7.078;2022-09-09T07:09:33;10.52;;;2.90;;
46899;SDS011;32647;49.382;7.078;2022-09-09T07:12:19;9.55;;;3.13;;
46899;SDS011;32647;49.382;7.078;2022-09-09T07:15:05;8.73;;;2.90;;
46899;SDS011;32647;49.382;7.078;2022-09-09T07:17:51;5.85;;;2.72;;
46899;SDS011;32647;49.382;7.078;2022-09-09T07:20:39;8.70;;;2.90;;
46899;SDS011;32647;49.382;7.078;2022-09-09T07:23:25;9.68;;;3.33;;
46899;SDS011;32647;49.382;7.078;2022-09-09T07:26:15;7.50;;;2.60;;
46899;SDS011;32647;49.382;7.078;2022-09-09T07:29:04;6.95;;;3.00;;
46899;SDS011;32647;49.382;7.078;2022-09-09T07:31:50;10.07;;;3.53;;
46899;SDS011;32647;49.382;7.078;2022-09-09T07:34:37;13.57;;;3.38;;
46899;SDS011;32647;49.382;7.078;2022-09-09T07:37:23;11.45;;;3.53;;
46899;SDS011;32647;49.382;7.078;2022-09-09T07:40:09;8.65;;;3.70;;
46899;SDS011;32647;49.382;7.078;2022-09-09T07:42:55;11.25;;;3.22;;
46899;SDS011;32647;49.382;7.078;2022-09-09T07:45:41;10.05;;;3.10;;
46899;SDS011;32647;49.382;7.078;2022-09-09T07:48:27;7.50;;;2.97;;
46899;SDS011;32647;49.382;7.078;2022-09-09T07:51:14;8.63;;;2.97;;
46899;SDS011;32647;49.382;7.078;2022-09-09T07:54:05;8.38;;;3.40;;
46899;SDS011;32647;49.382;7.078;2022-09-09T07:56:54;5.93;;;3.38;;
46899;SDS011;32647;49.382;7.078;2022-09-09T07:59:40;7.68;;;2.90;;
46899;SDS011;32647;49.382;7.078;2022-09-09T08:02:26;9.60;;;3.20;;
46899;SDS011;32647;49.382;7.078;2022-09-09T08:05:14;13.20;;;3.60;;
46899;SDS011;32647;49.382;7.078;2022-09-09T08:08:02;10.15;;;3.15;;
46899;SDS011;32647;49.382;7.078;2022-09-09T08:10:49;11.20;;;2.70;;
46899;SDS011;32647;49.382;7.078;2022-09-09T08:13:35;10.52;;;3.35;;
46899;SDS011;32647;49.382;7.078;2022-09-09T08:16:26;7.63;;;2.58;;
46899;SDS011;32647;49.382;7.078;2022-09-09T08:19:14;7.38;;;2.42;;
46899;SDS011;32647;49.382;7.078;2022-09-09T08:22:03;11.40;;;2.60;;
46899;SDS011;32647;49.382;7.078;2022-09-09T08:24:49;6.55;;;2.55;;
46899;SDS011;32647;49.382;7.078;2022-09-09T08:27:35;11.25;;;2.47;;
46899;SDS011;32647;49.382;7.078;2022-09-09T08:30:22;11.98;;;2.80;;
46899;SDS011;32647;49.382;7.078;2022-09-09T08:33:09;9.35;;;3.22;;
46899;SDS011;32647;49.382;7.078;2022-09-09T08:35:55;6.95;;;2.42;;
46899;SDS011;32647;49.382;7.078;2022-09-09T08:38:42;8.93;;;2.58;;
46899;SDS011;32647;49.382;7.078;2022-09-09T08:48:11;8.23;;;2.38;;
46899;SDS011;32647;49.382;7.078;2022-09-09T08:51:05;6.95;;;2.60;;
46899;SDS011;32647;49.382;7.078;2022-09-09T08:53:52;10.70;;;2.47;;
46899;SDS011;32647;49.382;7.078;2022-09-09T08:56:40;12.10;;;2.45;;
46899;SDS011;32647;49.382;7.078;2022-09-09T08:59:26;8.75;;;2.20;;
46899;SDS011;32647;49.382;7.078;2022-09-09T09:02:25;7.35;;;2.17;;
46899;SDS011;32647;49.382;7.078;2022-09-09T09:05:26;7.20;;;2.72;;
46899;SDS011;32647;49.382;7.078;2022-09-09T09:11:18;7.65;;;2.50;;
46899;SDS011;32647;49.382;7.078;2022-09-09T09:14:08;5.00;;;2.13;;
46899;SDS011;32647;49.382;7.078;2022-09-09T09:19:52;9.35;;;3.25;;
46899;SDS011;32647;49.382;7.078;2022-09-09T09:22:49;10.10;;;2.70;;
46899;SDS011;32647;49.382;7.078;2022-09-09T09:25:38;8.27;;;2.13;;
46899;SDS011;32647;49.382;7.078;2022-09-09T09:28:31;7.60;;;3.30;;
46899;SDS011;32647;49.382;7.078;2022-09-09T09:31:17;9.20;;;2.45;;
46899;SDS011;32647;49.382;7.078;2022-09-09T09:34:05;8.23;;;2.20;;
46899;SDS011;32647;49.382;7.078;2022-09-09T09:36:54;5.68;;;2.33;;
46899;SDS011;32647;49.382;7.078;2022-09-09T09:39:42;6.97;;;2.33;;
46899;SDS011;32647;49.382;7.078;2022-09-09T09:42:28;7.95;;;2.53;;
46899;SDS011;32647;49.382;7.078;2022-09-09T09:45:33;10.88;;;2.28;;
46899;SDS011;32647;49.382;7.078;2022-09-09T09:48:27;9.07;;;2.13;;
46899;SDS011;32647;49.382;7.078;2022-09-09T09:51:14;7.90;;;2.33;;
46899;SDS011;32647;49.382;7.078;2022-09-09T09:54:50;6.03;;;1.90;;
46899;SDS011;32647;49.382;7.078;2022-09-09T09:57:15;6.97;;;2.15;;
46899;SDS011;32647;49.382;7.078;2022-09-09T10:03:22;5.65;;;2.08;;
46899;SDS011;32647;49.382;7.078;2022-09-09T10:06:10;11.90;;;2.35;;
46899;SDS011;32647;49.382;7.078;2022-09-09T10:08:56;11.40;;;2.80;;
46899;SDS011;32647;49.382;7.078;2022-09-09T10:11:52;12.65;;;2.72;;
46899;SDS011;32647;49.382;7.078;2022-09-09T10:30:16;9.65;;;2.55;;
46899;SDS011;32647;49.382;7.078;2022-09-09T10:33:09;6.60;;;2.28;;
46899;SDS011;32647;49.382;7.078;2022-09-09T10:38:53;8.32;;;2.83;;
46899;SDS011;32647;49.382;7.078;2022-09-09T10:42:04;9.25;;;3.03;;
46899;SDS011;32647;49.382;7.078;2022-09-09T10:50:43;7.32;;;2.65;;
46899;SDS011;32647;49.382;7.078;2022-09-09T10:53:43;11.20;;;2.95;;
46899;SDS011;32647;49.382;7.078;2022-09-09T10:56:31;12.93;;;3.47;;
46899;SDS011;32647;49.382;7.078;2022-09-09T10:59:20;11.40;;;3.10;;
46899;SDS011;32647;49.382;7.078;2022-09-09T11:05:21;10.80;;;3.00;;
46899;SDS011;32647;49.382;7.078;2022-09-09T11:08:14;9.32;;;2.90;;
46899;SDS011;32647;49.382;7.078;2022-09-09T11:13:59;9.60;;;2.40;;
46899;SDS011;32647;49.382;7.078;2022-09-09T11:16:56;9.52;;;3.15;;
46899;SDS011;32647;49.382;7.078;2022-09-09T11:19:46;10.07;;;3.20;;
46899;SDS011;32647;49.382;7.078;2022-09-09T11:22:36;5.15;;;2.33;;
46899;SDS011;32647;49.382;7.078;2022-09-09T11:25:36;4.97;;;2.10;;
46899;SDS011;32647;49.382;7.078;2022-09-09T11:34:27;9.25;;;1.83;;
46899;SDS011;32647;49.382;7.078;2022-09-09T11:40:24;3.38;;;1.70;;
46899;SDS011;32647;49.382;7.078;2022-09-09T11:43:17;6.80;;;1.88;;
46899;SDS011;32647;49.382;7.078;2022-09-09T11:46:20;5.57;;;2.10;;
46899;SDS011;32647;49.382;7.078;2022-09-09T11:49:28;6.25;;;2.30;;
46899;SDS011;32647;49.382;7.078;2022-09-09T11:52:35;5.90;;;2.00;;
46899;SDS011;32647;49.382;7.078;2022-09-09T11:55:28;6.38;;;2.20;;
46899;SDS011;32647;49.382;7.078;2022-09-09T11:58:18;8.30;;;3.45;;
46899;SDS011;32647;49.382;7.078;2022-09-09T12:01:16;5.93;;;1.95;;
46899;SDS011;32647;49.382;7.078;2022-09-09T12:10:25;6.32;;;2.30;;
46899;SDS011;32647;49.382;7.078;2022-09-09T12:13:16;6.40;;;2.63;;
46899;SDS011;32647;49.382;7.078;2022-09-09T12:16:02;6.68;;;2.10;;
46899;SDS011;32647;49.382;7.078;2022-09-09T12:18:50;6.95;;;2.28;;
46899;SDS011;32647;49.382;7.078;2022-09-09T12:21:42;5.97;;;2.20;;
46899;SDS011;32647;49.382;7.078;2022-09-09T12:24:35;6.40;;;2.50;;
46899;SDS011;32647;49.382;7.078;2022-09-09T12:27:33;7.60;;;2.20;;
46899;SDS011;32647;49.382;7.078;2022-09-09T12:30:29;7.22;;;2.30;;
46899;SDS011;32647;49.382;7.078;2022-09-09T12:33:20;7.68;;;2.13;;
46899;SDS011;32647;49.382;7.078;2022-09-09T12:36:07;7.15;;;1.90;;
46899;SDS011;32647;49.382;7.078;2022-09-09T12:39:16;5.50;;;2.40;;
46899;SDS011;32647;49.382;7.078;2022-09-09T12:42:17;5.93;;;1.92;;
46899;SDS011;32647;49.382;7.078;2022-09-09T12:45:15;6.15;;;2.22;;
46899;SDS011;32647;49.382;7.078;2022-09-09T12:50:49;7.40;;;2.47;;
46899;SDS011;32647;49.382;7.078;2022-09-09T12:53:37;7.60;;;2.25;;
46899;SDS011;32647;49.382;7.078;2022-09-09T12:56:34;7.70;;;1.88;;
46899;SDS011;32647;49.382;7.078;2022-09-09T12:59:25;3.30;;;1.85;;
46899;SDS011;32647;49.382;7.078;2022-09-09T13:02:22;5.20;;;1.65;;
46899;SDS011;32647;49.382;7.078;2022-09-09T13:05:20;6.22;;;1.85;;
46899;SDS011;32647;49.382;7.078;2022-09-09T13:08:09;5.57;;;1.90;;
46899;SDS011;32647;49.382;7.078;2022-09-09T13:10:57;6.88;;;2.20;;
46899;SDS011;32647;49.382;7.078;2022-09-09T13:13:50;5.63;;;2.00;;
46899;SDS011;32647;49.382;7.078;2022-09-09T13:19:28;3.83;;;1.48;;
46899;SDS011;32647;49.382;7.078;2022-09-09T13:25:25;4.18;;;1.42;;
46899;SDS011;32647;49.382;7.078;2022-09-09T13:28:23;7.55;;;2.20;;
46899;SDS011;32647;49.382;7.078;2022-09-09T13:31:24;4.60;;;1.80;;
46899;SDS011;32647;49.382;7.078;2022-09-09T13:40:22;3.75;;;1.92;;
46899;SDS011;32647;49.382;7.078;2022-09-09T13:43:17;2.75;;;1.77;;
46899;SDS011;32647;49.382;7.078;2022-09-09T13:52:08;6.57;;;1.90;;
46899;SDS011;32647;49.382;7.078;2022-09-09T13:54:58;5.50;;;1.60;;
46899;SDS011;32647;49.382;7.078;2022-09-09T13:57:51;3.33;;;2.05;;
46899;SDS011;32647;49.382;7.078;2022-09-09T14:00:48;5.93;;;2.00;;
46899;SDS011;32647;49.382;7.078;2022-09-09T14:03:35;6.07;;;1.85;;
46899;SDS011;32647;49.382;7.078;2022-09-09T14:06:21;4.43;;;1.98;;
46899;SDS011;32647;49.382;7.078;2022-09-09T14:09:10;6.47;;;2.10;;
46899;SDS011;32647;49.382;7.078;2022-09-09T14:11:58;4.20;;;1.80;;
46899;SDS011;32647;49.382;7.078;2022-09-09T14:14:45;5.60;;;2.15;;
46899;SDS011;32647;49.382;7.078;2022-09-09T14:17:30;5.90;;;2.17;;
46899;SDS011;32647;49.382;7.078;2022-09-09T14:20:16;5.97;;;1.88;;
46899;SDS011;32647;49.382;7.078;2022-09-09T14:23:04;4.63;;;1.52;;
46899;SDS011;32647;49.382;7.078;2022-09-09T14:25:50;5.35;;;1.70;;
46899;SDS011;32647;49.382;7.078;2022-09-09T14:28:36;4.70;;;1.55;;
46899;SDS011;32647;49.382;7.078;2022-09-09T14:31:23;6.63;;;1.42;;
46899;SDS011;32647;49.382;7.078;2022-09-09T14:34:10;5.43;;;1.65;;
46899;SDS011;32647;49.382;7.078;2022-09-09T14:36:56;2.35;;;1.60;;
46899;SDS011;32647;49.382;7.078;2022-09-09T14:39:42;3.13;;;1.52;;
46899;SDS011;32647;49.382;7.078;2022-09-09T14:42:32;2.55;;;1.30;;
46899;SDS011;32647;49.382;7.078;2022-09-09T14:45:18;6.00;;;1.50;;
46899;SDS011;32647;49.382;7.078;2022-09-09T14:48:06;3.90;;;1.52;;
46899;SDS011;32647;49.382;7.078;2022-09-09T14:50:52;3.25;;;1.38;;
46899;SDS011;32647;49.382;7.078;2022-09-09T14:53:39;3.80;;;1.60;;
46899;SDS011;32647;49.382;7.078;2022-09-09T14:56:27;2.75;;;1.40;;
46899;SDS011;32647;49.382;7.078;2022-09-09T14:59:14;4.45;;;1.95;;
46899;SDS011;32647;49.382;7.078;2022-09-09T15:02:01;4.55;;;1.50;;
46899;SDS011;32647;49.382;7.078;2022-09-09T15:04:49;4.70;;;1.50;;
46899;SDS011;32647;49.382;7.078;2022-09-09T15:07:35;3.60;;;1.50;;
46899;SDS011;32647;49.382;7.078;2022-09-09T15:10:21;4.53;;;1.63;;
46899;SDS011;32647;49.382;7.078;2022-09-09T15:13:07;3.53;;;1.40;;
46899;SDS011;32647;49.382;7.078;2022-09-09T15:15:54;3.33;;;1.50;;
46899;SDS011;32647;49.382;7.078;2022-09-09T15:18:40;6.18;;;3.60;;
46899;SDS011;32647;49.382;7.078;2022-09-09T15:21:31;5.00;;;1.70;;
46899;SDS011;32647;49.382;7.078;2022-09-09T15:24:19;4.50;;;1.88;;
46899;SDS011;32647;49.382;7.078;2022-09-09T15:27:05;2.67;;;1.23;;
46899;SDS011;32647;49.382;7.078;2022-09-09T15:29:54;5.35;;;1.80;;
46899;SDS011;32647;49.382;7.078;2022-09-09T15:32:40;5.22;;;1.40;;
46899;SDS011;32647;49.382;7.078;2022-09-09T15:35:26;3.67;;;1.58;;
46899;SDS011;32647;49.382;7.078;2022-09-09T15:38:12;5.85;;;1.27;;
46899;SDS011;32647;49.382;7.078;2022-09-09T15:40:58;3.15;;;1.38;;
46899;SDS011;32647;49.382;7.078;2022-09-09T15:43:45;3.72;;;1.40;;
46899;SDS011;32647;49.382;7.078;2022-09-09T15:46:36;4.65;;;1.60;;
46899;SDS011;32647;49.382;7.078;2022-09-09T15:49:25;3.22;;;1.30;;
46899;SDS011;32647;49.382;7.078;2022-09-09T15:52:11;6.72;;;2.25;;
46899;SDS011;32647;49.382;7.078;2022-09-09T15:54:57;5.95;;;1.88;;
46899;SDS011;32647;49.382;7.078;2022-09-09T15:57:44;4.72;;;2.25;;
46899;SDS011;32647;49.382;7.078;2022-09-09T16:00:30;3.78;;;2.15;;
46899;SDS011;32647;49.382;7.078;2022-09-09T16:03:16;3.92;;;1.85;;
46899;SDS011;32647;49.382;7.078;2022-09-09T16:06:04;4.65;;;1.95;;
46899;SDS011;32647;49.382;7.078;2022-09-09T16:08:51;13.18;;;2.60;;
46899;SDS011;32647;49.382;7.078;2022-09-09T16:11:38;5.57;;;1.80;;
46899;SDS011;32647;49.382;7.078;2022-09-09T16:14:24;7.30;;;1.92;;
46899;SDS011;32647;49.382;7.078;2022-09-09T16:19:47;3.08;;;1.23;;
46899;SDS011;32647;49.382;7.078;2022-09-09T16:22:33;4.00;;;1.50;;
46899;SDS011;32647;49.382;7.078;2022-09-09T16:25:19;5.43;;;1.98;;
46899;SDS011;32647;49.382;7.078;2022-09-09T16:28:05;2.95;;;1.70;;
46899;SDS011;32647;49.382;7.078;2022-09-09T16:30:51;4.85;;;2.00;;
46899;SDS011;32647;49.382;7.078;2022-09-09T16:33:38;3.58;;;2.00;;
46899;SDS011;32647;49.382;7.078;2022-09-09T16:36:25;4.15;;;2.88;;
46899;SDS011;32647;49.382;7.078;2022-09-09T16:39:19;7.30;;;2.40;;
46899;SDS011;32647;49.382;7.078;2022-09-09T16:42:06;10.25;;;4.47;;
46899;SDS011;32647;49.382;7.078;2022-09-09T16:44:52;8.32;;;2.00;;
46899;SDS011;32647;49.382;7.078;2022-09-09T16:47:38;3.25;;;2.20;;
46899;SDS011;32647;49.382;7.078;2022-09-09T16:53:03;3.72;;;1.98;;
46899;SDS011;32647;49.382;7.078;2022-09-09T16:55:51;6.28;;;2.78;;
46899;SDS011;32647;49.382;7.078;2022-09-09T16:58:37;8.35;;;3.15;;
46899;SDS011;32647;49.382;7.078;2022-09-09T17:01:24;6.47;;;3.28;;
46899;SDS011;32647;49.382;7.078;2022-09-09T17:04:13;8.38;;;3.65;;
46899;SDS011;32647;49.382;7.078;2022-09-09T17:07:05;6.63;;;2.53;;
46899;SDS011;32647;49.382;7.078;2022-09-09T17:09:52;4.78;;;2.20;;
46899;SDS011;32647;49.382;7.078;2022-09-09T17:12:39;4.53;;;2.80;;
46899;SDS011;32647;49.382;7.078;2022-09-09T17:15:26;6.43;;;3.08;;
46899;SDS011;32647;49.382;7.078;2022-09-09T17:18:12;7.80;;;3.10;;
46899;SDS011;32647;49.382;7.078;2022-09-09T17:21:02;5.95;;;2.67;;
46899;SDS011;32647;49.382;7.078;2022-09-09T17:26:28;10.23;;;2.90;;
46899;SDS011;32647;49.382;7.078;2022-09-09T17:29:15;6.97;;;2.83;;
46899;SDS011;32647;49.382;7.078;2022-09-09T17:32:02;9.73;;;2.40;;
46899;SDS011;32647;49.382;7.078;2022-09-09T17:34:50;4.85;;;2.55;;
46899;SDS011;32647;49.382;7.078;2022-09-09T17:37:37;5.82;;;2.25;;
46899;SDS011;32647;49.382;7.078;2022-09-09T17:40:24;6.68;;;2.92;;
46899;SDS011;32647;49.382;7.078;2022-09-09T17:43:10;5.35;;;2.20;;
46899;SDS011;32647;49.382;7.078;2022-09-09T17:46:00;4.95;;;2.22;;
46899;SDS011;32647;49.382;7.078;2022-09-09T17:48:55;6.45;;;2.95;;
46899;SDS011;32647;49.382;7.078;2022-09-09T17:51:46;7.90;;;3.10;;
46899;SDS011;32647;49.382;7.078;2022-09-09T17:54:32;12.98;;;3.80;;
46899;SDS011;32647;49.382;7.078;2022-09-09T17:57:18;33.35;;;23.38;;
46899;SDS011;32647;49.382;7.078;2022-09-09T18:00:05;73.97;;;46.97;;
46899;SDS011;32647;49.382;7.078;2022-09-09T18:02:52;26.98;;;18.08;;
46899;SDS011;32647;49.382;7.078;2022-09-09T18:05:39;9.85;;;5.53;;
46899;SDS011;32647;49.382;7.078;2022-09-09T18:08:25;6.90;;;4.10;;
46899;SDS011;32647;49.382;7.078;2022-09-09T18:11:11;12.05;;;4.22;;
46899;SDS011;32647;49.382;7.078;2022-09-09T18:14:01;6.28;;;3.08;;
46899;SDS011;32647;49.382;7.078;2022-09-09T18:16:48;6.65;;;2.85;;
46899;SDS011;32647;49.382;7.078;2022-09-09T18:19:34;6.70;;;3.10;;
46899;SDS011;32647;49.382;7.078;2022-09-09T18:22:22;6.18;;;3.10;;
46899;SDS011;32647;49.382;7.078;2022-09-09T18:25:08;4.22;;;2.60;;
46899;SDS011;32647;49.382;7.078;2022-09-09T18:27:54;7.65;;;3.13;;
46899;SDS011;32647;49.382;7.078;2022-09-09T18:30:41;10.68;;;4.70;;
46899;SDS011;32647;49.382;7.078;2022-09-09T18:33:27;8.65;;;6.63;;
46899;SDS011;32647;49.382;7.078;2022-09-09T18:36:18;16.85;;;6.30;;
46899;SDS011;32647;49.382;7.078;2022-09-09T18:39:06;13.70;;;5.90;;
46899;SDS011;32647;49.382;7.078;2022-09-09T18:41:54;15.25;;;6.13;;
46899;SDS011;32647;49.382;7.078;2022-09-09T18:44:43;9.35;;;5.65;;
46899;SDS011;32647;49.382;7.078;2022-09-09T18:47:29;11.65;;;4.95;;
46899;SDS011;32647;49.382;7.078;2022-09-09T18:50:15;18.08;;;6.47;;
46899;SDS011;32647;49.382;7.078;2022-09-09T18:53:01;13.20;;;6.90;;
46899;SDS011;32647;49.382;7.078;2022-09-09T18:55:56;15.35;;;7.28;;
46899;SDS011;32647;49.382;7.078;2022-09-09T18:58:46;7.85;;;4.18;;
46899;SDS011;32647;49.382;7.078;2022-09-09T19:01:36;7.47;;;3.75;;
46899;SDS011;32647;49.382;7.078;2022-09-09T19:04:23;7.80;;;4.25;;
46899;SDS011;32647;49.382;7.078;2022-09-09T19:07:11;11.40;;;6.72;;
46899;SDS011;32647;49.382;7.078;2022-09-09T19:09:57;11.10;;;6.32;;
46899;SDS011;32647;49.382;7.078;2022-09-09T19:12:43;12.30;;;5.63;;
46899;SDS011;32647;49.382;7.078;2022-09-09T19:15:29;13.70;;;7.75;;